createdAt,value
2019-05-16T00:00:44.131Z,94311.58
2019-05-16T00:03:22.254Z,94301.98
2019-05-16T00:05:58.238Z,94304.72
2019-05-16T00:08:29.830Z,94306.91
2019-05-16T00:11:01.808Z,94300.20
2019-05-16T00:13:33.763Z,94298.33
2019-05-16T00:16:07.853Z,94305.55
2019-05-16T00:18:39.273Z,94304.03
2019-05-16T00:21:11.248Z,94306.24
2019-05-16T00:23:43.140Z,94300.24
2019-05-16T00:26:15.084Z,94299.59
2019-05-16T00:28:48.510Z,94303.55
2019-05-16T00:31:20.702Z,94299.89
2019-05-16T00:33:52.536Z,94301.91
2019-05-16T00:36:24.440Z,94292.03
2019-05-16T00:38:57.844Z,94294.67
2019-05-16T00:41:29.923Z,94287.91
2019-05-16T00:44:01.794Z,94288.48
2019-05-16T00:46:33.829Z,94287.25
2019-05-16T00:49:08.111Z,94290.23
2019-05-16T00:51:39.521Z,94288.94
2019-05-16T00:54:11.598Z,94279.67
2019-05-16T00:56:44.913Z,94277.13
2019-05-16T00:59:18.783Z,94270.23
2019-05-16T01:01:50.567Z,94265.20
2019-05-16T01:04:22.401Z,94267.53
2019-05-16T01:06:54.415Z,94269.97
2019-05-16T01:09:28.191Z,94266.55
2019-05-16T01:11:59.921Z,94263.42
2019-05-16T01:14:31.908Z,94267.48
2019-05-16T01:17:03.819Z,94264.42
2019-05-16T01:19:37.883Z,94260.81
2019-05-16T01:22:09.425Z,94262.93
2019-05-16T01:24:41.637Z,94255.89
2019-05-16T01:27:13.551Z,94257.16
2019-05-16T01:29:47.613Z,94255.47
2019-05-16T01:32:19.154Z,94256.44
2019-05-16T01:34:50.971Z,94254.20
2019-05-16T01:37:23.136Z,94252.45
2019-05-16T01:39:55.123Z,94251.56
2019-05-16T01:42:27.914Z,94251.97
2019-05-16T01:44:59.838Z,94255.25
2019-05-16T01:47:31.882Z,94249.39
2019-05-16T01:50:04.016Z,94245.21
2019-05-16T01:52:38.075Z,94255.52
2019-05-16T01:55:10.041Z,94251.11
2019-05-16T01:57:42.051Z,94247.56
2019-05-16T02:00:14.197Z,94246.14
2019-05-16T02:02:48.613Z,94240.46
2019-05-16T02:05:20.084Z,94229.23
2019-05-16T02:07:52.068Z,94230.23
2019-05-16T02:10:24.270Z,94239.47
2019-05-16T02:12:58.151Z,94243.58
2019-05-16T02:15:29.893Z,94248.44
2019-05-16T02:18:01.684Z,94242.53
2019-05-16T02:20:33.637Z,94239.27
2019-05-16T02:23:07.881Z,94241.13
2019-05-16T02:25:40.810Z,94242.89
2019-05-16T02:28:13.028Z,94247.02
2019-05-16T02:30:45.073Z,94252.21
2019-05-16T02:33:17.015Z,94248.78
2019-05-16T02:35:51.645Z,94240.92
2019-05-16T02:38:22.809Z,94245.97
2019-05-16T02:40:55.445Z,94247.57
2019-05-16T02:43:31.042Z,94251.98
2019-05-16T02:46:01.664Z,94244.98
2019-05-16T02:48:35.522Z,94239.91
2019-05-16T02:51:10.838Z,94240.70
2019-05-16T02:53:41.805Z,94240.19
2019-05-16T02:56:14.097Z,94236.00
2019-05-16T02:58:46.139Z,94241.67
2019-05-16T03:01:21.373Z,94239.97
2019-05-16T03:03:52.111Z,94241.45
2019-05-16T03:06:26.047Z,94238.22
2019-05-16T03:09:01.749Z,94227.61
2019-05-16T03:11:33.329Z,94228.27
2019-05-16T03:14:07.185Z,94233.52
2019-05-16T03:16:41.966Z,94237.98
2019-05-16T03:19:16.567Z,94236.23
2019-05-16T03:21:50.952Z,94241.36
2019-05-16T03:24:23.429Z,94247.25
2019-05-16T03:26:55.378Z,94253.63
2019-05-16T03:29:27.361Z,94247.81
2019-05-16T03:32:02.964Z,94244.28
2019-05-16T03:34:34.490Z,94248.48
2019-05-16T03:37:07.065Z,94247.50
2019-05-16T03:39:40.687Z,94248.50
2019-05-16T03:42:13.047Z,94248.33
2019-05-16T03:44:45.086Z,94252.77
2019-05-16T03:47:17.207Z,94253.00
2019-05-16T03:49:51.714Z,94249.11
2019-05-16T03:52:23.095Z,94246.87
2019-05-16T03:54:55.217Z,94248.11
2019-05-16T03:57:30.459Z,94247.87
2019-05-16T04:00:01.231Z,94243.95
2019-05-16T04:02:33.417Z,94242.03
2019-05-16T04:05:05.708Z,94245.59
2019-05-16T04:07:41.059Z,94246.89
2019-05-16T04:10:11.837Z,94237.64
2019-05-16T04:12:43.915Z,94237.13
2019-05-16T04:15:17.378Z,94240.92
2019-05-16T04:17:51.271Z,94241.89
2019-05-16T04:20:23.560Z,94243.70
2019-05-16T04:22:55.711Z,94238.94
2019-05-16T04:25:30.930Z,94237.29
2019-05-16T04:28:01.922Z,94237.58
2019-05-16T04:30:34.187Z,94237.36
2019-05-16T04:33:06.362Z,94239.91
2019-05-16T04:35:41.112Z,94243.05
2019-05-16T04:38:28.627Z,94245.67
2019-05-16T04:40:46.080Z,94244.43
2019-05-16T04:43:21.570Z,94242.11
2019-05-16T04:45:52.920Z,94240.63
2019-05-16T04:48:25.240Z,94247.06
2019-05-16T04:50:57.369Z,94246.83
2019-05-16T04:53:31.601Z,94244.14
2019-05-16T04:56:03.592Z,94241.59
2019-05-16T04:58:35.658Z,94245.93
2019-05-16T05:01:10.864Z,94242.22
2019-05-16T05:03:58.496Z,94239.00
2019-05-16T05:06:15.502Z,94245.92
2019-05-16T05:08:57.087Z,94246.66
2019-05-16T05:11:21.858Z,94250.81
2019-05-16T05:13:54.328Z,94259.28
2019-05-16T05:16:26.554Z,94254.05
2019-05-16T05:19:00.323Z,94258.88
2019-05-16T05:21:33.002Z,94253.67
2019-05-16T05:24:05.260Z,94250.69
2019-05-16T05:26:37.392Z,94257.08
2019-05-16T05:29:10.334Z,94257.98
2019-05-16T05:31:44.557Z,94256.23
2019-05-16T05:34:16.616Z,94254.59
2019-05-16T05:36:51.175Z,94255.81
2019-05-16T05:39:22.807Z,94259.15
2019-05-16T05:41:55.264Z,94257.16
2019-05-16T05:44:27.401Z,94257.99
2019-05-16T05:47:00.593Z,94254.06
2019-05-16T05:49:33.074Z,94262.77
2019-05-16T05:52:05.427Z,94261.61
2019-05-16T05:54:40.572Z,94260.86
2019-05-16T05:57:11.692Z,94261.53
2019-05-16T05:59:44.179Z,94260.92
2019-05-16T06:02:16.745Z,94258.84
2019-05-16T06:04:50.194Z,94261.86
2019-05-16T06:07:22.745Z,94263.08
2019-05-16T06:09:56.571Z,94263.87
2019-05-16T06:12:30.358Z,94263.77
2019-05-16T06:15:09.052Z,94256.97
2019-05-16T06:17:40.028Z,94252.02
2019-05-16T06:20:14.639Z,94248.94
2019-05-16T06:22:46.568Z,94247.73
2019-05-16T06:25:22.885Z,94253.14
2019-05-16T06:27:52.911Z,94251.14
2019-05-16T06:30:25.405Z,94255.42
2019-05-16T06:32:59.555Z,94254.95
2019-05-16T06:35:31.444Z,94254.20
2019-05-16T06:38:03.633Z,94246.72
2019-05-16T06:40:35.894Z,94247.95
2019-05-16T06:43:07.964Z,94252.83
2019-05-16T06:45:40.322Z,94250.34
2019-05-16T06:48:12.751Z,94249.17
2019-05-16T06:50:45.079Z,94250.59
2019-05-16T06:53:17.318Z,94253.05
2019-05-16T06:55:50.038Z,94250.88
2019-05-16T06:58:22.547Z,94249.27
2019-05-16T07:00:55.115Z,94250.12
2019-05-16T07:03:27.343Z,94248.89
2019-05-16T07:06:00.498Z,94244.72
2019-05-16T07:08:33.072Z,94242.44
2019-05-16T07:11:05.428Z,94240.67
2019-05-16T07:13:37.756Z,94242.28
2019-05-16T07:16:09.953Z,94244.52
2019-05-16T07:18:42.221Z,94243.05
2019-05-16T07:21:14.554Z,94243.12
2019-05-16T07:23:46.556Z,94239.86
2019-05-16T07:26:20.514Z,94235.54
2019-05-16T07:28:52.862Z,94227.04
2019-05-16T07:31:25.197Z,94232.67
2019-05-16T07:33:57.403Z,94224.52
2019-05-16T07:36:31.431Z,94226.84
2019-05-16T07:39:05.523Z,94225.80
2019-05-16T07:41:40.003Z,94225.06
2019-05-16T07:44:12.087Z,94226.46
2019-05-16T07:46:44.907Z,94228.11
2019-05-16T07:49:17.099Z,94225.53
2019-05-16T07:51:49.886Z,94223.82
2019-05-16T07:54:22.346Z,94223.55
2019-05-16T07:56:58.825Z,94226.02
2019-05-16T07:59:29.961Z,94229.03
2019-05-16T08:02:02.287Z,94222.83
2019-05-16T08:04:34.365Z,94227.17
2019-05-16T08:07:06.436Z,94218.89
2019-05-16T08:09:39.748Z,94222.02
2019-05-16T08:12:11.814Z,94223.49
2019-05-16T08:14:43.959Z,94218.78
2019-05-16T08:17:16.303Z,94220.28
2019-05-16T08:19:50.646Z,94215.92
2019-05-16T08:22:22.910Z,94224.44
2019-05-16T08:24:55.311Z,94219.03
2019-05-16T08:27:30.480Z,94220.53
2019-05-16T08:30:02.640Z,94218.41
2019-05-16T08:32:35.056Z,94212.30
2019-05-16T08:35:10.927Z,94216.42
2019-05-16T08:37:46.712Z,94212.23
2019-05-16T08:40:20.610Z,94205.41
2019-05-16T08:45:25.390Z,94210.30
2019-05-16T08:47:59.687Z,94217.27
2019-05-16T08:50:35.090Z,94218.00
2019-05-16T08:53:05.548Z,94218.36
2019-05-16T08:55:37.694Z,94223.23
2019-05-16T08:58:14.756Z,94228.38
2019-05-16T09:00:43.810Z,94228.42
2019-05-16T09:03:16.130Z,94233.84
2019-05-16T09:05:48.440Z,94234.48
2019-05-16T09:08:20.499Z,94236.84
2019-05-16T09:10:11.186Z,94207.06
2019-05-16T09:11:01.893Z,94228.72
2019-05-16T09:13:27.873Z,94223.36
2019-05-16T09:16:00.251Z,94221.63
2019-05-16T09:18:40.787Z,94217.58
2019-05-16T09:21:07.340Z,94216.08
2019-05-16T09:23:39.685Z,94212.30
2019-05-16T09:26:16.180Z,94209.82
2019-05-16T09:28:48.177Z,94208.02
2019-05-16T09:31:19.711Z,94213.70
2019-05-16T09:33:51.834Z,94218.58
2019-05-16T09:36:23.812Z,94217.88
2019-05-16T09:38:57.777Z,94215.84
2019-05-16T09:41:46.223Z,94210.95
2019-05-16T09:44:03.513Z,94209.69
2019-05-16T09:46:37.582Z,94206.91
2019-05-16T09:49:19.300Z,94201.64
2019-05-16T09:51:43.663Z,94207.33
2019-05-16T09:54:16.759Z,94204.81
2019-05-16T09:56:49.160Z,94194.44
2019-05-16T09:59:21.517Z,94193.37
2019-05-16T10:01:53.736Z,94196.75
2019-05-16T10:04:26.727Z,94193.34
2019-05-16T10:06:59.433Z,94194.56
2019-05-16T10:09:42.195Z,94190.45
2019-05-16T10:12:14.680Z,94183.46
2019-05-16T10:14:39.887Z,94178.55
2019-05-16T10:17:12.362Z,94173.71
2019-05-16T10:19:44.482Z,94176.80
2019-05-16T10:22:17.191Z,94173.05
2019-05-16T10:24:49.351Z,94171.98
2019-05-16T10:27:21.581Z,94174.84
2019-05-16T10:29:53.872Z,94169.40
2019-05-16T10:32:27.388Z,94159.47
2019-05-16T10:34:59.880Z,94150.81
2019-05-16T10:37:32.318Z,94157.71
2019-05-16T10:40:07.139Z,94159.23
2019-05-16T10:42:38.671Z,94156.46
2019-05-16T10:45:13.243Z,94157.30
2019-05-16T10:47:47.978Z,94155.98
2019-05-16T10:50:20.301Z,94158.88
2019-05-16T10:53:20.424Z,94159.79
2019-05-16T10:55:27.807Z,94152.90
2019-05-16T10:58:00.154Z,94160.89
2019-05-16T11:00:57.702Z,94161.54
2019-05-16T11:03:06.719Z,94161.30
2019-05-16T11:05:39.734Z,94163.41
2019-05-16T11:08:12.395Z,94164.50
2019-05-16T11:10:44.669Z,94162.36
2019-05-16T11:13:20.170Z,94164.95
2019-05-16T11:15:50.642Z,94169.42
2019-05-16T11:18:22.770Z,94170.16
2019-05-16T11:20:57.731Z,94172.47
2019-05-16T11:23:31.438Z,94174.50
2019-05-16T11:26:02.853Z,94175.97
2019-05-16T11:28:36.784Z,94181.95
2019-05-16T11:31:08.810Z,94194.23
2019-05-16T11:33:41.288Z,94200.84
2019-05-16T11:36:16.555Z,94205.37
2019-05-16T11:38:47.862Z,94216.11
2019-05-16T11:41:20.188Z,94221.45
2019-05-16T11:43:52.375Z,94229.25
2019-05-16T11:46:27.889Z,94240.13
2019-05-16T11:48:58.787Z,94244.17
2019-05-16T11:51:31.127Z,94253.67
2019-05-16T11:54:03.433Z,94249.24
2019-05-16T11:56:37.055Z,94257.19
2019-05-16T11:59:09.431Z,94261.35
2019-05-16T12:01:41.646Z,94255.06
2019-05-16T12:04:13.743Z,94250.28
2019-05-16T12:06:46.840Z,94249.66
2019-05-16T12:09:19.290Z,94228.34
2019-05-16T12:12:02.576Z,94228.80
2019-05-16T12:14:27.527Z,94230.02
2019-05-16T12:16:59.923Z,94232.83
2019-05-16T12:19:35.494Z,94225.10
2019-05-16T12:22:07.089Z,94212.48
2019-05-16T12:24:41.453Z,94208.64
2019-05-16T12:27:13.660Z,94203.28
2019-05-16T12:29:50.259Z,94195.25
2019-05-16T12:32:19.882Z,94176.84
2019-05-16T12:34:52.385Z,94175.78
2019-05-16T12:37:27.428Z,94176.78
2019-05-16T12:39:59.359Z,94171.45
2019-05-16T12:42:31.602Z,94174.51
2019-05-16T12:45:03.936Z,94166.78
2019-05-16T12:47:37.467Z,94159.30
2019-05-16T12:50:10.732Z,94150.27
2019-05-16T12:52:43.385Z,94143.77
2019-05-16T12:55:16.684Z,94147.59
2019-05-16T12:57:50.021Z,94155.45
2019-05-16T13:00:23.404Z,94161.00
2019-05-16T13:02:57.502Z,94159.06
2019-05-16T13:05:29.858Z,94162.82
2019-05-16T13:08:02.008Z,94166.91
2019-05-16T13:10:34.459Z,94175.66
2019-05-16T13:13:07.733Z,94179.82
2019-05-16T13:15:42.363Z,94182.50
2019-05-16T13:18:14.100Z,94187.11
2019-05-16T13:20:47.023Z,94195.97
2019-05-16T13:23:19.236Z,94197.52
2019-05-16T13:25:51.863Z,94199.02
2019-05-16T13:28:24.384Z,94202.53
2019-05-16T13:30:57.669Z,94202.33
2019-05-16T13:33:30.294Z,94202.03
2019-05-16T13:36:02.947Z,94200.08
2019-05-16T13:38:35.432Z,94195.53
2019-05-16T13:41:07.927Z,94204.31
2019-05-16T13:43:40.158Z,94205.98
2019-05-16T13:46:12.459Z,94205.81
2019-05-16T13:48:44.714Z,94211.92
2019-05-16T13:51:19.077Z,94206.81
2019-05-16T13:53:50.759Z,94208.33
2019-05-16T13:56:22.953Z,94198.80
2019-05-16T13:58:56.999Z,94195.95
2019-05-16T14:01:32.001Z,94188.94
2019-05-16T14:04:09.049Z,94194.18
2019-05-16T14:06:41.461Z,94193.37
2019-05-16T14:09:12.115Z,94197.58
2019-05-16T14:11:46.462Z,94196.28
2019-05-16T14:14:33.535Z,94190.41
2019-05-16T14:16:52.075Z,94187.41
2019-05-16T14:19:24.264Z,94183.13
2019-05-16T14:21:56.976Z,94186.66
2019-05-16T14:24:29.680Z,94187.61
2019-05-16T14:27:01.891Z,94194.03
2019-05-16T14:29:34.092Z,94199.33
2019-05-16T14:32:10.026Z,94200.25
2019-05-16T14:34:40.641Z,94196.42
2019-05-16T14:37:12.979Z,94196.69
2019-05-16T14:39:48.501Z,94195.39
2019-05-16T14:42:19.069Z,94196.54
2019-05-16T14:45:06.701Z,94193.71
2019-05-16T14:47:27.211Z,94196.75
2019-05-16T14:49:59.112Z,94204.03
2019-05-16T14:52:31.719Z,94206.09
2019-05-16T14:55:06.996Z,94202.41
2019-05-16T14:57:38.569Z,94198.39
2019-05-16T15:00:11.357Z,94193.84
2019-05-16T15:02:44.003Z,94194.63
2019-05-16T15:05:16.634Z,94192.67
2019-05-16T15:07:49.042Z,94195.88
2019-05-16T15:10:21.679Z,94193.67
2019-05-16T15:12:54.063Z,94190.41
2019-05-16T15:15:28.117Z,94187.97
2019-05-16T15:18:00.755Z,94186.84
2019-05-16T15:20:32.946Z,94183.31
2019-05-16T15:23:07.692Z,94189.09
2019-05-16T15:25:39.550Z,94185.23
2019-05-16T15:28:12.113Z,94188.77
2019-05-16T15:30:46.785Z,94194.17
2019-05-16T15:33:19.778Z,94197.20
2019-05-16T15:35:52.199Z,94202.08
2019-05-16T15:38:27.155Z,94203.31
2019-05-16T15:41:00.441Z,94192.20
2019-05-16T15:43:32.977Z,94185.09
2019-05-16T15:46:08.061Z,94186.03
2019-05-16T15:48:39.646Z,94183.58
2019-05-16T15:51:12.208Z,94181.72
2019-05-16T15:53:45.729Z,94173.73
2019-05-16T15:56:18.374Z,94169.23
2019-05-16T15:58:50.770Z,94171.33
2019-05-16T16:01:22.928Z,94170.67
2019-05-16T16:03:56.055Z,94171.74
2019-05-16T16:06:28.243Z,94161.27
2019-05-16T16:09:00.983Z,94168.45
2019-05-16T16:11:33.268Z,94166.27
2019-05-16T16:14:07.002Z,94159.67
2019-05-16T16:16:39.674Z,94164.61
2019-05-16T16:19:12.017Z,94175.11
2019-05-16T16:21:47.059Z,94177.99
2019-05-16T16:24:19.334Z,94175.77
2019-05-16T16:26:52.008Z,94175.34
2019-05-16T16:29:27.106Z,94185.02
2019-05-16T16:31:59.212Z,94188.38
2019-05-16T16:34:31.527Z,94192.91
2019-05-16T16:37:03.969Z,94190.29
2019-05-16T16:39:37.723Z,94192.88
2019-05-16T16:42:10.293Z,94206.40
2019-05-16T16:44:42.651Z,94211.09
2019-05-16T16:47:17.436Z,94206.10
2019-05-16T16:49:49.304Z,94204.25
2019-05-16T16:52:21.673Z,94199.31
2019-05-16T16:54:56.704Z,94198.66
2019-05-16T16:57:28.693Z,94201.75
2019-05-16T17:00:01.170Z,94207.42
2019-05-16T17:02:33.738Z,94211.01
2019-05-16T17:05:11.553Z,94213.04
2019-05-16T17:07:40.849Z,94217.16
2019-05-16T17:10:16.452Z,94222.91
2019-05-16T17:12:48.888Z,94227.88
2019-05-16T17:15:22.885Z,94234.47
2019-05-16T17:17:57.422Z,94235.16
2019-05-16T17:20:29.553Z,94233.39
2019-05-16T17:23:02.237Z,94231.98
2019-05-16T17:25:36.696Z,94234.69
2019-05-16T17:28:08.746Z,94239.00
2019-05-16T17:30:41.209Z,94246.66
2019-05-16T17:33:13.581Z,94255.30
2019-05-16T17:35:48.753Z,94256.97
2019-05-16T17:38:19.873Z,94260.07
2019-05-16T17:40:52.165Z,94263.23
2019-05-16T17:43:26.830Z,94257.99
2019-05-16T17:45:58.499Z,94273.23
2019-05-16T17:48:30.909Z,94276.52
2019-05-16T17:51:03.199Z,94283.59
2019-05-16T17:53:37.303Z,94282.31
2019-05-16T17:56:09.520Z,94290.03
2019-05-16T17:58:41.893Z,94288.50
2019-05-16T18:01:16.940Z,94285.88
2019-05-16T18:03:48.316Z,94289.80
2019-05-16T18:06:20.963Z,94285.94
2019-05-16T18:08:53.541Z,94288.58
2019-05-16T18:11:26.784Z,94293.05
2019-05-16T18:13:59.363Z,94297.06
2019-05-16T18:16:32.184Z,94299.70
2019-05-16T18:19:07.066Z,94303.60
2019-05-16T18:21:39.356Z,94313.14
2019-05-16T18:24:11.860Z,94310.93
2019-05-16T18:26:44.220Z,94314.72
2019-05-16T18:29:16.509Z,94310.86
2019-05-16T18:31:48.836Z,94313.59
2019-05-16T18:34:21.471Z,94316.85
2019-05-16T18:37:02.143Z,94320.47
2019-05-16T18:39:36.893Z,94323.12
2019-05-16T18:42:16.325Z,94327.63
2019-05-16T18:44:49.436Z,94327.23
2019-05-16T18:47:22.140Z,94330.11
2019-05-16T18:49:54.780Z,94330.47
2019-05-16T18:52:27.719Z,94327.81
2019-05-16T18:55:04.433Z,94330.82
2019-05-16T18:57:47.286Z,94327.48
2019-05-16T19:00:20.303Z,94332.97
2019-05-16T19:02:52.756Z,94331.15
2019-05-16T19:05:26.514Z,94334.14
2019-05-16T19:07:59.196Z,94340.84
2019-05-16T19:10:36.669Z,94338.13
2019-05-16T19:13:12.501Z,94330.77
2019-05-16T19:15:48.925Z,94332.42
2019-05-16T19:18:20.217Z,94338.75
2019-05-16T19:20:52.632Z,94337.90
2019-05-16T19:23:26.940Z,94343.50
2019-05-16T19:26:00.070Z,94345.03
2019-05-16T19:28:32.741Z,94342.08
2019-05-16T19:31:06.640Z,94341.68
2019-05-16T19:33:40.169Z,94339.98
2019-05-16T19:36:13.881Z,94347.75
2019-05-16T19:38:47.224Z,94335.61
2019-05-16T19:41:22.875Z,94340.14
2019-05-16T19:43:57.186Z,94346.27
2019-05-16T19:46:29.958Z,94344.63
2019-05-16T19:49:02.358Z,94342.81
2019-05-16T19:51:36.249Z,94336.72
2019-05-16T19:54:08.957Z,94340.91
2019-05-16T19:56:41.820Z,94347.36
2019-05-16T19:59:16.729Z,94351.00
2019-05-16T20:01:48.937Z,94353.05
2019-05-16T20:04:21.367Z,94348.57
2019-05-16T20:06:56.564Z,94351.42
2019-05-16T20:09:30.271Z,94343.56
2019-05-16T20:12:02.133Z,94351.84
2019-05-16T20:14:36.523Z,94349.78
2019-05-16T20:17:08.638Z,94347.31
2019-05-16T20:19:41.213Z,94353.52
2019-05-16T20:22:13.506Z,94352.17
2019-05-16T20:24:46.898Z,94354.23
2019-05-16T20:27:19.551Z,94357.49
2019-05-16T20:29:52.056Z,94355.91
2019-05-16T20:32:24.387Z,94347.44
2019-05-16T20:34:56.671Z,94350.23
2019-05-16T20:37:28.914Z,94349.82
2019-05-16T20:40:01.272Z,94347.13
2019-05-16T20:42:33.239Z,94351.85
2019-05-16T20:45:07.772Z,94356.72
2019-05-16T20:47:39.491Z,94358.88
2019-05-16T20:50:12.922Z,94358.53
2019-05-16T20:52:48.359Z,94353.56
2019-05-16T20:55:19.317Z,94351.85
2019-05-16T20:57:51.667Z,94358.56
2019-05-16T21:00:24.095Z,94367.77
2019-05-16T21:02:59.311Z,94360.61
2019-05-16T21:05:31.561Z,94361.48
2019-05-16T21:08:06.280Z,94359.45
2019-05-16T21:10:38.599Z,94358.98
2019-05-16T21:13:11.203Z,94347.80
2019-05-16T21:15:43.739Z,94352.25
2019-05-16T21:18:18.250Z,94355.92
2019-05-16T21:20:52.593Z,94352.09
2019-05-16T21:23:27.453Z,94361.94
2019-05-16T21:25:59.656Z,94363.45
2019-05-16T21:28:32.298Z,94363.86
2019-05-16T21:31:06.994Z,94370.35
2019-05-16T21:33:38.949Z,94370.53
2019-05-16T21:36:11.448Z,94370.77
2019-05-16T21:38:44.062Z,94369.46
2019-05-16T21:41:16.893Z,94368.73
2019-05-16T21:43:49.630Z,94367.92
2019-05-16T21:46:22.424Z,94378.48
2019-05-16T21:48:56.742Z,94373.95
2019-05-16T21:51:28.854Z,94375.80
2019-05-16T21:54:01.472Z,94372.20
2019-05-16T21:56:33.834Z,94378.97
2019-05-16T21:59:06.948Z,94378.16
2019-05-16T22:01:39.859Z,94379.32
2019-05-16T22:04:12.482Z,94377.00
2019-05-16T22:06:47.347Z,94379.76
2019-05-16T22:09:19.441Z,94377.95
2019-05-16T22:11:52.107Z,94376.23
2019-05-16T22:14:30.901Z,94370.31
2019-05-16T22:17:03.346Z,94374.25
2019-05-16T22:19:36.265Z,94377.70
2019-05-16T22:22:08.777Z,94372.92
2019-05-16T22:24:41.187Z,94372.47
2019-05-16T22:27:13.511Z,94374.23
2019-05-16T22:29:46.261Z,94372.73
2019-05-16T22:32:18.625Z,94376.19
2019-05-16T22:34:53.580Z,94370.83
2019-05-16T22:37:26.581Z,94368.59
2019-05-16T22:39:59.708Z,94367.67
2019-05-16T22:42:32.122Z,94363.73
2019-05-16T22:45:08.486Z,94359.96
2019-05-16T22:47:38.276Z,94356.95
2019-05-16T22:50:11.384Z,94359.97
2019-05-16T22:52:43.682Z,94357.67
2019-05-16T22:55:17.002Z,94354.98
2019-05-16T22:57:49.185Z,94357.48
2019-05-16T23:00:26.602Z,94355.11
2019-05-16T23:02:58.723Z,94355.20
2019-05-16T23:05:30.795Z,94348.47
2019-05-16T23:08:07.316Z,94353.66
2019-05-16T23:10:36.962Z,94351.42
2019-05-16T23:13:09.129Z,94345.77
2019-05-16T23:15:41.190Z,94339.84
2019-05-16T23:18:13.210Z,94346.59
2019-05-16T23:20:47.332Z,94347.11
2019-05-16T23:23:19.136Z,94343.69
2019-05-16T23:25:51.158Z,94344.73
2019-05-16T23:28:23.350Z,94339.13
2019-05-16T23:30:59.562Z,94343.19
2019-05-16T23:33:31.697Z,94338.95
2019-05-16T23:36:03.671Z,94335.38
2019-05-16T23:38:36.896Z,94328.31
2019-05-16T23:41:09.152Z,94325.22
2019-05-16T23:43:41.178Z,94316.64
2019-05-16T23:46:13.322Z,94316.51
2019-05-16T23:48:47.178Z,94313.88
2019-05-16T23:51:19.142Z,94322.67
2019-05-16T23:53:51.208Z,94317.67
2019-05-16T23:56:23.495Z,94323.66
2019-05-16T23:58:56.941Z,94318.47
